CheckWX is a tool to help pilots better visualize weather data.  It is not intended as a substitute for an official pre-flight weather briefing.

16:09:23 UTC

KMKT TAF
Mankato Regional Airport
Mankato, Minnesota, USA
KMKT 141504Z 1415/1512 32014KT P6SM OVC012 TEMPO 1415/1416 2SM -SN BR FM141700 32013KT P6SM SCT020 FM150000 31006KT P6SM FEW070 SCT150

Dec-14@
15:00 UTC

Dec-14 @ 15:00 UTC

Dec-14@
17:00 UTC

Dec-14 @ 17:00 UTC

KMKT 141504Z 1415/1512 32014KT P6SM OVC012
Wind
  • 320° at 14 KTS
Cloud Levels
  • Overcast at 1,200' AGL

Dec-14@
15:00 UTC

Dec-14 @ 15:00 UTC

Dec-14@
16:00 UTC

Dec-14 @ 16:00 UTC

TEMPO 1415/1416 2SM -SN BR

Expired

Conditions
Light Snow, Mist

Dec-14@
17:00 UTC

Dec-14 @ 17:00 UTC

Dec-15@
00:00 UTC

Dec-15 @ 00:00 UTC

FM141700 32013KT P6SM SCT020

From

From Standard forecast or significant change

Wind
  • 320° at 13 KTS
Cloud Levels
  • Scattered at 2,000' AGL

Dec-15@
00:00 UTC

Dec-15 @ 00:00 UTC

Dec-15@
12:00 UTC

Dec-15 @ 12:00 UTC

FM150000 31006KT P6SM FEW070 SCT150

From

From Standard forecast or significant change

Wind
  • 310° at 6 KTS
Cloud Levels
  • Few at 7,000' AGL
  • Scattered at 15,000' AGL